createdAt,value
2019-04-13T00:04:00.479Z,100204.67
2019-04-13T00:08:07.565Z,100205.50
2019-04-13T00:12:31.418Z,100210.73
2019-04-13T00:16:35.696Z,100205.89
2019-04-13T00:20:39.890Z,100209.73
2019-04-13T00:24:44.223Z,100208.81
2019-04-13T00:28:48.548Z,100209.17
2019-04-13T00:32:52.763Z,100214.80
2019-04-13T00:36:57.011Z,100213.05
2019-04-13T00:41:01.261Z,100211.75
2019-04-13T00:45:06.170Z,100210.39
2019-04-13T00:49:10.530Z,100207.78
2019-04-13T00:53:14.755Z,100195.48
2019-04-13T00:57:18.973Z,100203.20
2019-04-13T01:01:23.236Z,100191.87
2019-04-13T01:05:27.425Z,100196.58
2019-04-13T01:09:31.812Z,100191.27
2019-04-13T01:13:36.034Z,100188.20
2019-04-13T01:17:40.266Z,100193.78
2019-04-13T01:21:44.803Z,100192.44
2019-04-13T01:25:49.074Z,100189.73
2019-04-13T01:29:53.653Z,100200.94
2019-04-13T01:33:57.855Z,100199.23
2019-04-13T01:38:02.039Z,100195.66
2019-04-13T01:42:06.251Z,100204.25
2019-04-13T01:46:10.967Z,100205.16
2019-04-13T01:50:15.200Z,100209.56
2019-04-13T01:54:19.384Z,100203.89
2019-04-13T01:58:23.509Z,100194.34
2019-04-13T02:02:46.806Z,100194.73
2019-04-13T02:07:25.350Z,100197.41
2019-04-13T02:11:39.044Z,100202.89
2019-04-13T02:15:43.229Z,100193.34
2019-04-13T02:19:47.404Z,100189.42
2019-04-13T02:23:51.541Z,100194.66
2019-04-13T02:27:55.716Z,100201.14
2019-04-13T02:31:59.899Z,100190.16
2019-04-13T02:36:04.037Z,100191.86
2019-04-13T02:40:08.416Z,100189.64
2019-04-13T02:44:12.590Z,100186.48
2019-04-13T02:48:16.828Z,100179.09
2019-04-13T02:52:22.830Z,100180.78
2019-04-13T02:56:27.000Z,100178.64
2019-04-13T03:00:31.189Z,100185.63
2019-04-13T03:04:35.372Z,100176.86
2019-04-13T03:08:39.544Z,100175.98
2019-04-13T03:12:43.704Z,100182.09
2019-04-13T03:17:17.647Z,100174.20
2019-04-13T03:21:21.832Z,100175.51
2019-04-13T03:25:26.015Z,100165.87
2019-04-13T03:29:30.184Z,100161.03
2019-04-13T03:33:34.355Z,100172.81
2019-04-13T03:37:38.518Z,100162.73
2019-04-13T03:41:42.712Z,100158.81
2019-04-13T03:45:46.921Z,100167.00
2019-04-13T03:49:51.106Z,100173.63
2019-04-13T03:53:55.281Z,100170.09
2019-04-13T03:57:59.450Z,100175.72
2019-04-13T04:02:03.613Z,100170.00
2019-04-13T04:06:11.829Z,100167.86
2019-04-13T04:10:13.691Z,100162.59
2019-04-13T04:14:17.820Z,100159.55
2019-04-13T04:18:24.233Z,100165.61
2019-04-13T04:22:28.376Z,100166.87
2019-04-13T04:26:32.547Z,100162.07
2019-04-13T04:30:36.724Z,100164.25
2019-04-13T04:34:53.070Z,100152.92
2019-04-13T04:38:57.240Z,100153.84
2019-04-13T04:43:07.737Z,100141.59
2019-04-13T04:47:11.911Z,100148.74
2019-04-13T04:51:16.075Z,100155.33
2019-04-13T04:55:20.245Z,100157.02
2019-04-13T04:59:24.491Z,100159.11
2019-04-13T05:03:28.645Z,100164.30
2019-04-13T05:07:32.818Z,100154.27
2019-04-13T05:11:38.115Z,100162.12
2019-04-13T05:15:42.360Z,100163.52
2019-04-13T05:19:46.720Z,100164.39
2019-04-13T05:23:50.976Z,100168.73
2019-04-13T05:27:56.241Z,100173.97
2019-04-13T05:32:00.387Z,100173.92
2019-04-13T05:36:04.601Z,100168.31
2019-04-13T05:40:08.802Z,100172.14
2019-04-13T05:44:13.117Z,100169.13
2019-04-13T05:48:17.404Z,100167.92
2019-04-13T05:52:24.611Z,100165.70
2019-04-13T05:56:28.854Z,100162.25
2019-04-13T06:00:33.400Z,100167.00
2019-04-13T06:04:39.544Z,100167.44
2019-04-13T06:08:43.781Z,100170.48
2019-04-13T06:12:47.953Z,100172.14
2019-04-13T06:16:52.310Z,100171.41
2019-04-13T06:20:56.630Z,100165.30
2019-04-13T06:25:00.980Z,100168.73
2019-04-13T06:29:05.310Z,100162.16
2019-04-13T06:33:19.965Z,100161.77
2019-04-13T06:37:25.463Z,100167.48
2019-04-13T06:41:29.749Z,100172.23
2019-04-13T06:45:34.007Z,100166.56
2019-04-13T06:49:38.281Z,100177.55
2019-04-13T06:53:42.492Z,100177.64
2019-04-13T06:57:46.642Z,100182.52
2019-04-13T07:01:50.830Z,100188.41
2019-04-13T07:05:55.034Z,100185.19
2019-04-13T07:10:31.229Z,100190.95
2019-04-13T07:14:36.177Z,100190.17
2019-04-13T07:18:40.362Z,100183.63
2019-04-13T07:22:44.574Z,100184.62
2019-04-13T07:26:50.759Z,100191.73
2019-04-13T07:30:55.010Z,100195.80
2019-04-13T07:34:59.146Z,100194.34
2019-04-13T07:39:04.567Z,100205.41
2019-04-13T07:43:10.938Z,100201.92
2019-04-13T07:47:32.155Z,100203.40
2019-04-13T07:51:58.458Z,100208.32
2019-04-13T07:56:02.863Z,100198.48
2019-04-13T08:00:07.424Z,100198.53
2019-04-13T08:04:11.676Z,100195.16
2019-04-13T08:08:15.799Z,100196.07
2019-04-13T08:12:19.998Z,100200.04
2019-04-13T08:16:26.231Z,100204.55
2019-04-13T08:20:34.116Z,100197.65
2019-04-13T08:24:38.166Z,100191.66
2019-04-13T08:28:42.377Z,100199.55
2019-04-13T08:32:46.567Z,100193.95
2019-04-13T08:36:50.906Z,100192.68
2019-04-13T08:41:09.687Z,100199.38
2019-04-13T08:45:00.962Z,100193.74
2019-04-13T08:49:05.124Z,100201.56
2019-04-13T08:53:11.342Z,100188.83
2019-04-13T08:57:15.532Z,100192.91
2019-04-13T09:01:19.725Z,100197.45
2019-04-13T09:05:23.898Z,100199.27
2019-04-13T09:09:28.089Z,100195.92
2019-04-13T09:13:33.148Z,100194.28
2019-04-13T09:17:49.836Z,100190.05
2019-04-13T09:22:02.882Z,100182.70
2019-04-13T09:26:07.200Z,100184.44
2019-04-13T09:30:11.477Z,100187.47
2019-04-13T09:34:29.807Z,100189.69
2019-04-13T09:38:21.570Z,100177.52
2019-04-13T09:42:25.841Z,100177.22
2019-04-13T09:46:30.051Z,100175.67
2019-04-13T09:50:36.674Z,100177.48
2019-04-13T09:54:40.711Z,100174.64
2019-04-13T09:58:46.116Z,100182.08
2019-04-13T10:02:50.299Z,100176.17
2019-04-13T10:06:54.479Z,100177.08
2019-04-13T10:10:59.114Z,100177.27
2019-04-13T10:15:37.438Z,100177.27
2019-04-13T10:19:41.626Z,100175.63
2019-04-13T10:23:45.792Z,100169.69
2019-04-13T10:27:49.963Z,100164.16
2019-04-13T10:31:54.231Z,100154.09
2019-04-13T10:35:58.319Z,100161.64
2019-04-13T10:40:02.529Z,100155.14
2019-04-13T10:44:08.254Z,100156.91
2019-04-13T10:48:20.145Z,100161.83
2019-04-13T10:52:24.388Z,100152.80
2019-04-13T10:56:28.568Z,100155.50
2019-04-13T11:00:33.255Z,100142.44
2019-04-13T11:04:37.818Z,100146.82
2019-04-13T11:08:42.967Z,100139.84
2019-04-13T11:12:47.160Z,100140.27
2019-04-13T11:16:53.051Z,100135.11
2019-04-13T11:20:57.342Z,100139.47
2019-04-13T11:25:01.525Z,100140.73
2019-04-13T11:29:05.680Z,100138.16
2019-04-13T11:33:09.846Z,100125.48
2019-04-13T11:37:17.195Z,100132.02
2019-04-13T11:41:49.098Z,100129.92
2019-04-13T11:46:11.046Z,100126.91
2019-04-13T11:50:20.354Z,100130.86
2019-04-13T11:54:27.222Z,100131.28
2019-04-13T11:58:30.476Z,100125.13
2019-04-13T12:02:47.245Z,100127.77
2019-04-13T12:07:01.117Z,100126.40
2019-04-13T12:11:30.331Z,100132.13
2019-04-13T12:15:52.586Z,100126.45
2019-04-13T12:20:20.820Z,100121.77
2019-04-13T12:24:26.473Z,100126.70
2019-04-13T12:28:30.951Z,100115.84
2019-04-13T12:32:35.133Z,100121.20
2019-04-13T12:36:39.408Z,100121.14
2019-04-13T12:40:53.833Z,100116.78
2019-04-13T12:44:58.008Z,100117.73
2019-04-13T12:49:02.222Z,100112.09
2019-04-13T12:53:06.347Z,100109.05
2019-04-13T12:57:10.536Z,100106.50
2019-04-13T13:01:27.571Z,100103.87
2019-04-13T13:05:34.701Z,100112.58
2019-04-13T13:09:40.061Z,100106.08
2019-04-13T13:13:44.865Z,100107.95
2019-04-13T13:17:49.003Z,100108.90
2019-04-13T13:21:53.272Z,100105.37
2019-04-13T13:25:57.460Z,100093.13
2019-04-13T13:30:01.606Z,100095.32
2019-04-13T13:34:05.804Z,100095.28
2019-04-13T13:38:09.996Z,100095.38
2019-04-13T13:42:14.201Z,100092.75
2019-04-13T13:46:18.362Z,100092.25
2019-04-13T13:50:22.819Z,100079.52
2019-04-13T13:54:27.045Z,100085.22
2019-04-13T13:58:41.404Z,100082.88
2019-04-13T14:02:47.268Z,100083.30
2019-04-13T14:06:50.936Z,100085.41
2019-04-13T14:10:55.136Z,100081.41
2019-04-13T14:14:59.370Z,100083.64
2019-04-13T14:19:03.556Z,100079.23
2019-04-13T14:23:07.753Z,100084.03
2019-04-13T14:27:11.940Z,100085.34
2019-04-13T14:31:16.114Z,100076.55
2019-04-13T14:35:20.249Z,100082.19
2019-04-13T14:39:24.428Z,100075.45
2019-04-13T14:43:41.475Z,100068.36
2019-04-13T14:47:46.026Z,100078.45
2019-04-13T14:51:52.703Z,100079.34
2019-04-13T14:55:58.050Z,100076.29
2019-04-13T15:00:02.286Z,100079.80
2019-04-13T15:04:06.476Z,100085.48
2019-04-13T15:08:11.657Z,100084.55
2019-04-13T15:12:15.826Z,100075.30
2019-04-13T15:16:23.121Z,100069.95
2019-04-13T15:20:33.992Z,100076.06
2019-04-13T15:24:32.779Z,100072.95
2019-04-13T15:28:39.576Z,100073.42
2019-04-13T15:32:42.996Z,100073.84
2019-04-13T15:36:47.194Z,100079.47
2019-04-13T15:40:56.577Z,100075.84
2019-04-13T15:44:58.565Z,100077.59
2019-04-13T15:49:02.791Z,100076.06
2019-04-13T15:53:07.531Z,100077.05
2019-04-13T15:57:13.125Z,100077.05
2019-04-13T16:01:17.775Z,100078.69
2019-04-13T16:05:22.146Z,100079.06
2019-04-13T16:09:48.268Z,100078.63
2019-04-13T16:13:52.441Z,100075.05
2019-04-13T16:17:56.579Z,100075.87
2019-04-13T16:22:02.445Z,100075.87
2019-04-13T16:26:06.661Z,100079.78
2019-04-13T16:30:28.823Z,100081.48
2019-04-13T16:34:42.918Z,100089.72
2019-04-13T16:38:54.644Z,100085.24
2019-04-13T16:42:53.096Z,100088.23
2019-04-13T16:47:03.878Z,100088.13
2019-04-13T16:51:45.730Z,100084.16
2019-04-13T16:55:53.825Z,100090.70
2019-04-13T17:00:37.693Z,100090.22
2019-04-13T17:04:45.062Z,100089.21
2019-04-13T17:08:49.392Z,100089.05
2019-04-13T17:12:53.631Z,100088.51
2019-04-13T17:16:59.073Z,100090.64
2019-04-13T17:21:14.864Z,100097.52
2019-04-13T17:25:28.007Z,100097.00
2019-04-13T17:29:57.403Z,100100.91
2019-04-13T17:34:07.272Z,100105.22
2019-04-13T17:38:11.524Z,100113.38
2019-04-13T17:42:46.655Z,100121.16
2019-04-13T17:47:02.335Z,100125.00
2019-04-13T17:51:35.290Z,100128.30
2019-04-13T17:56:02.005Z,100129.05
2019-04-13T18:00:28.762Z,100134.16
2019-04-13T18:04:51.490Z,100139.30
2019-04-13T18:09:14.306Z,100140.55
2019-04-13T18:13:50.968Z,100146.09
2019-04-13T18:18:04.362Z,100151.70
2019-04-13T18:22:08.592Z,100154.62
2019-04-13T18:26:12.863Z,100156.63
2019-04-13T18:30:25.782Z,100164.02
2019-04-13T18:34:25.528Z,100161.68
2019-04-13T18:38:29.234Z,100162.41
2019-04-13T18:42:34.672Z,100173.39
2019-04-13T18:46:38.905Z,100176.73
2019-04-13T18:50:43.456Z,100179.23
2019-04-13T18:54:47.712Z,100180.55
2019-04-13T18:58:52.299Z,100183.02
2019-04-13T19:02:56.554Z,100186.39
2019-04-13T19:07:00.696Z,100189.36
2019-04-13T19:11:04.974Z,100189.80
2019-04-13T19:15:09.312Z,100195.83
2019-04-13T19:19:13.501Z,100194.08
2019-04-13T19:23:17.688Z,100188.45
2019-04-13T19:27:21.867Z,100194.56
2019-04-13T19:31:26.159Z,100191.52
2019-04-13T19:35:30.348Z,100189.60
2019-04-13T19:39:34.517Z,100190.83
2019-04-13T19:43:38.699Z,100187.77
2019-04-13T19:47:42.872Z,100184.28
2019-04-13T19:52:06.209Z,100185.99
2019-04-13T19:56:15.502Z,100178.14
2019-04-13T20:00:22.959Z,100180.71
2019-04-13T20:04:27.115Z,100171.55
2019-04-13T20:08:31.290Z,100175.84
2019-04-13T20:12:36.199Z,100177.89
2019-04-13T20:16:40.490Z,100173.48
2019-04-13T20:20:44.668Z,100175.16
2019-04-13T20:24:56.714Z,100179.16
2019-04-13T20:29:03.504Z,100181.70
2019-04-13T20:33:08.888Z,100173.72
2019-04-13T20:37:14.217Z,100181.84
2019-04-13T20:41:21.638Z,100168.27
2019-04-13T20:45:26.503Z,100173.42
2019-04-13T20:49:30.690Z,100172.50
2019-04-13T20:53:34.895Z,100169.45
2019-04-13T20:57:39.175Z,100167.28
2019-04-13T21:01:43.309Z,100166.92
2019-04-13T21:05:47.507Z,100160.78
2019-04-13T21:10:08.071Z,100167.80
2019-04-13T21:14:22.860Z,100159.94
2019-04-13T21:18:18.945Z,100160.34
2019-04-13T21:22:24.460Z,100153.23
2019-04-13T21:26:30.703Z,100154.06
2019-04-13T21:30:35.962Z,100157.98
2019-04-13T21:34:41.446Z,100154.41
2019-04-13T21:38:47.271Z,100146.61
2019-04-13T21:43:04.619Z,100150.94
2019-04-13T21:47:09.791Z,100147.41
2019-04-13T21:51:46.827Z,100150.80
2019-04-13T21:55:51.044Z,100147.27
2019-04-13T21:59:56.488Z,100144.95
2019-04-13T22:04:02.039Z,100146.31
2019-04-13T22:08:07.741Z,100143.22
2019-04-13T22:12:13.299Z,100140.59
2019-04-13T22:16:17.477Z,100141.56
2019-04-13T22:20:21.699Z,100145.09
2019-04-13T22:24:26.821Z,100138.64
2019-04-13T22:28:36.685Z,100144.26
2019-04-13T22:32:49.581Z,100136.41
2019-04-13T22:36:54.917Z,100138.11
2019-04-13T22:41:00.484Z,100132.32
2019-04-13T22:45:09.335Z,100138.42
2019-04-13T22:49:30.483Z,100138.50
2019-04-13T22:53:50.476Z,100130.27
2019-04-13T22:57:54.796Z,100129.34
2019-04-13T23:02:10.368Z,100134.63
2019-04-13T23:06:14.790Z,100130.66
2019-04-13T23:10:20.283Z,100122.81
2019-04-13T23:14:24.630Z,100125.86
2019-04-13T23:18:29.641Z,100117.14
2019-04-13T23:22:34.245Z,100118.09
2019-04-13T23:26:38.507Z,100112.00
2019-04-13T23:30:42.823Z,100111.60
2019-04-13T23:34:47.035Z,100105.86
2019-04-13T23:38:51.233Z,100099.19
2019-04-13T23:42:57.016Z,100093.48
2019-04-13T23:47:01.509Z,100103.94
2019-04-13T23:51:05.835Z,100097.41
2019-04-13T23:55:10.172Z,100098.59
2019-04-13T23:59:24.111Z,100091.73
